createdAt,value
2023-05-12T00:02:00.811Z,14.60
2023-05-12T00:04:27.752Z,14.70
2023-05-12T00:06:54.672Z,14.60
2023-05-12T00:09:21.649Z,14.60
2023-05-12T00:11:49.502Z,14.70
2023-05-12T00:14:17.079Z,14.60
2023-05-12T00:16:44.898Z,14.60
2023-05-12T00:19:12.146Z,14.70
2023-05-12T00:21:41.301Z,14.70
2023-05-12T00:24:08.541Z,14.60
2023-05-12T00:26:35.372Z,14.60
2023-05-12T00:29:02.739Z,14.50
2023-05-12T00:31:32.728Z,14.50
2023-05-12T00:34:00.032Z,14.40
2023-05-12T00:36:27.208Z,14.40
2023-05-12T00:38:54.642Z,14.40
2023-05-12T00:41:21.762Z,14.30
2023-05-12T00:43:49.163Z,14.30
2023-05-12T00:46:16.982Z,14.20
2023-05-12T00:48:45.001Z,14.20
2023-05-12T00:51:13.422Z,14.30
2023-05-12T00:53:49.336Z,14.30
2023-05-12T00:56:19.587Z,14.40
2023-05-12T00:58:47.061Z,14.40
2023-05-12T01:01:14.165Z,14.40
2023-05-12T01:03:42.450Z,14.40
2023-05-12T01:06:21.961Z,14.40
2023-05-12T01:08:49.295Z,14.40
2023-05-12T01:11:16.257Z,14.40
2023-05-12T01:13:43.215Z,14.40
2023-05-12T01:16:13.673Z,14.40
2023-05-12T01:18:43.256Z,14.40
2023-05-12T01:21:11.328Z,14.40
2023-05-12T01:23:42.562Z,14.40
2023-05-12T01:26:11.019Z,14.50
2023-05-12T01:28:39.143Z,14.50
2023-05-12T01:31:07.490Z,14.50
2023-05-12T01:33:35.572Z,14.50
2023-05-12T01:36:02.904Z,14.50
2023-05-12T01:38:29.742Z,14.40
2023-05-12T01:40:56.709Z,14.40
2023-05-12T01:43:23.648Z,14.30
2023-05-12T01:45:50.964Z,14.30
2023-05-12T01:48:18.287Z,14.30
2023-05-12T01:50:45.364Z,14.40
2023-05-12T01:53:12.548Z,14.40
2023-05-12T01:55:39.817Z,14.50
2023-05-12T01:58:07.083Z,14.40
2023-05-12T02:00:34.018Z,14.40
2023-05-12T02:03:01.064Z,14.30
2023-05-12T02:05:28.140Z,14.30
2023-05-12T02:07:55.114Z,14.30
2023-05-12T02:10:22.283Z,14.30
2023-05-12T02:12:49.697Z,14.20
2023-05-12T02:15:16.684Z,14.20
2023-05-12T02:17:43.534Z,14.20
2023-05-12T02:20:12.376Z,14.20
2023-05-12T02:22:39.455Z,14.00
2023-05-12T02:25:06.918Z,13.90
2023-05-12T02:27:33.807Z,13.80
2023-05-12T02:30:00.764Z,13.80
2023-05-12T02:32:31.134Z,13.70
2023-05-12T02:34:58.007Z,13.70
2023-05-12T02:37:24.950Z,13.70
2023-05-12T02:39:51.849Z,13.70
2023-05-12T02:42:19.125Z,13.60
2023-05-12T02:44:45.959Z,13.60
2023-05-12T02:47:12.849Z,13.60
2023-05-12T02:49:39.806Z,13.60
2023-05-12T02:52:06.890Z,13.50
2023-05-12T02:54:33.812Z,13.40
2023-05-12T02:57:05.080Z,13.30
2023-05-12T02:59:32.363Z,13.30
2023-05-12T03:01:59.878Z,13.40
2023-05-12T03:04:27.437Z,13.30
2023-05-12T03:06:54.366Z,13.30
2023-05-12T03:09:21.364Z,13.30
2023-05-12T03:11:48.215Z,13.20
2023-05-12T03:14:15.133Z,13.30
2023-05-12T03:16:42.171Z,13.30
2023-05-12T03:19:09.547Z,13.40
2023-05-12T03:21:36.439Z,13.30
2023-05-12T03:24:03.396Z,13.30
2023-05-12T03:26:30.651Z,13.30
2023-05-12T03:28:57.930Z,13.30
2023-05-12T03:31:24.862Z,13.30
2023-05-12T03:33:52.109Z,13.20
2023-05-12T03:36:19.435Z,13.10
2023-05-12T03:38:46.729Z,13.10
2023-05-12T03:41:13.659Z,13.00
2023-05-12T03:43:40.597Z,13.10
2023-05-12T03:46:07.719Z,13.10
2023-05-12T03:48:35.188Z,13.10
2023-05-12T03:51:02.476Z,13.10
2023-05-12T03:53:29.476Z,13.20
2023-05-12T03:55:56.406Z,13.20
2023-05-12T03:58:26.543Z,13.20
2023-05-12T04:00:56.990Z,13.10
2023-05-12T04:03:24.095Z,13.10
2023-05-12T04:05:51.226Z,13.10
2023-05-12T04:08:18.145Z,13.20
2023-05-12T04:10:44.987Z,13.20
2023-05-12T04:13:12.508Z,13.30
2023-05-12T04:15:40.027Z,13.30
2023-05-12T04:18:07.544Z,13.40
2023-05-12T04:20:34.384Z,13.40
2023-05-12T04:23:01.236Z,13.50
2023-05-12T04:25:28.104Z,13.50
2023-05-12T04:27:55.003Z,13.40
2023-05-12T04:30:22.188Z,13.30
2023-05-12T04:32:49.204Z,13.30
2023-05-12T04:35:17.174Z,13.30
2023-05-12T04:37:44.442Z,13.40
2023-05-12T04:40:11.878Z,13.40
2023-05-12T04:42:38.742Z,13.40
2023-05-12T04:45:07.231Z,13.40
2023-05-12T04:47:34.189Z,13.40
2023-05-12T04:50:01.230Z,13.20
2023-05-12T04:52:28.745Z,13.40
2023-05-12T04:54:55.803Z,13.50
2023-05-12T04:57:23.000Z,13.70
2023-05-12T04:59:50.337Z,13.80
2023-05-12T05:02:17.263Z,14.00
2023-05-12T05:04:44.249Z,14.20
2023-05-12T05:07:11.493Z,14.40
2023-05-12T05:09:39.244Z,14.70
2023-05-12T05:12:07.216Z,15.00
2023-05-12T05:14:34.143Z,15.20
2023-05-12T05:17:01.126Z,15.30
2023-05-12T05:19:39.153Z,15.50
2023-05-12T05:22:14.911Z,15.60
2023-05-12T05:24:41.717Z,15.80
2023-05-12T05:27:08.566Z,15.90
2023-05-12T05:29:35.393Z,16.00
2023-05-12T05:32:02.295Z,16.00
2023-05-12T05:34:29.579Z,15.80
2023-05-12T05:36:56.412Z,15.70
2023-05-12T05:39:23.688Z,15.50
2023-05-12T05:41:50.571Z,15.60
2023-05-12T05:44:17.503Z,15.50
2023-05-12T05:46:44.799Z,15.60
2023-05-12T05:49:11.682Z,15.60
2023-05-12T05:51:38.977Z,15.70
2023-05-12T05:54:06.257Z,15.80
2023-05-12T05:56:35.784Z,16.00
2023-05-12T05:59:04.519Z,16.30
2023-05-12T06:01:32.544Z,16.50
2023-05-12T06:04:00.136Z,16.70
2023-05-12T06:06:28.892Z,17.00
2023-05-12T06:08:56.219Z,17.30
2023-05-12T06:11:23.217Z,17.40
2023-05-12T06:13:50.386Z,17.60
2023-05-12T06:16:17.742Z,17.70
2023-05-12T06:18:45.190Z,17.70
2023-05-12T06:21:12.376Z,17.60
2023-05-12T06:23:39.668Z,17.70
2023-05-12T06:26:07.894Z,17.80
2023-05-12T06:28:34.809Z,17.90
2023-05-12T06:31:01.675Z,17.80
2023-05-12T06:33:28.503Z,17.60
2023-05-12T06:35:55.407Z,17.70
2023-05-12T06:38:22.399Z,17.80
2023-05-12T06:40:49.352Z,17.80
2023-05-12T06:43:16.299Z,18.10
2023-05-12T06:45:44.491Z,18.30
2023-05-12T06:48:11.938Z,18.50
2023-05-12T06:50:38.964Z,18.60
2023-05-12T06:53:08.035Z,18.70
2023-05-12T06:55:35.064Z,18.70
2023-05-12T06:58:03.083Z,18.80
2023-05-12T07:00:29.964Z,18.60
2023-05-12T07:02:57.505Z,18.90
2023-05-12T07:05:24.915Z,19.00
2023-05-12T07:07:52.044Z,19.10
2023-05-12T07:10:20.937Z,19.20
2023-05-12T07:12:47.852Z,19.30
2023-05-12T07:15:14.769Z,19.50
2023-05-12T07:17:41.827Z,19.60
2023-05-12T07:20:09.913Z,19.50
2023-05-12T07:22:38.829Z,19.60
2023-05-12T07:25:07.791Z,19.80
2023-05-12T07:27:35.178Z,19.90
2023-05-12T07:30:02.593Z,19.90
2023-05-12T07:32:29.464Z,19.90
2023-05-12T07:34:56.301Z,20.10
2023-05-12T07:37:23.240Z,20.10
2023-05-12T07:39:50.240Z,20.30
2023-05-12T07:42:17.465Z,20.10
2023-05-12T07:44:44.864Z,20.10
2023-05-12T07:47:12.230Z,19.70
2023-05-12T07:49:39.565Z,19.80
2023-05-12T07:52:06.957Z,19.70
2023-05-12T07:54:33.969Z,19.60
2023-05-12T07:57:00.948Z,19.40
2023-05-12T07:59:28.706Z,19.20
2023-05-12T08:01:56.131Z,19.10
2023-05-12T08:04:23.138Z,19.10
2023-05-12T08:06:50.008Z,19.00
2023-05-12T08:09:16.902Z,19.10
2023-05-12T08:11:47.116Z,19.20
2023-05-12T08:14:15.447Z,19.40
2023-05-12T08:16:45.456Z,19.60
2023-05-12T08:19:13.869Z,19.80
2023-05-12T08:21:40.949Z,20.10
2023-05-12T08:24:07.905Z,20.30
2023-05-12T08:26:35.200Z,20.40
2023-05-12T08:29:02.018Z,20.70
2023-05-12T08:31:29.376Z,20.90
2023-05-12T08:34:09.024Z,21.10
2023-05-12T08:36:37.469Z,21.10
2023-05-12T08:39:04.515Z,21.30
2023-05-12T08:41:45.301Z,21.40
2023-05-12T08:44:13.259Z,21.10
2023-05-12T08:46:40.772Z,21.00
2023-05-12T08:49:12.438Z,21.00
2023-05-12T08:51:42.098Z,21.00
2023-05-12T08:54:10.571Z,21.30
2023-05-12T08:59:10.407Z,21.00
2023-05-12T09:01:37.869Z,20.80
2023-05-12T09:04:05.180Z,20.90
2023-05-12T09:06:32.974Z,21.20
2023-05-12T09:09:01.212Z,21.60
2023-05-12T09:11:28.030Z,21.60
2023-05-12T09:14:07.584Z,21.70
2023-05-12T09:16:39.635Z,21.60
2023-05-12T09:19:07.132Z,21.40
2023-05-12T09:21:34.801Z,21.10
2023-05-12T09:24:07.225Z,20.90
2023-05-12T09:26:55.873Z,20.70
2023-05-12T09:29:31.493Z,20.60
2023-05-12T09:32:04.986Z,20.30
2023-05-12T09:34:35.820Z,20.10
2023-05-12T09:37:05.467Z,19.80
2023-05-12T09:39:33.190Z,19.60
2023-05-12T09:42:01.026Z,19.60
2023-05-12T09:44:31.091Z,19.70
2023-05-12T09:47:07.105Z,20.00
2023-05-12T09:49:34.178Z,20.30
2023-05-12T09:52:01.587Z,20.30
2023-05-12T09:54:33.620Z,20.50
2023-05-12T09:57:02.783Z,20.60
2023-05-12T09:59:34.897Z,20.60
2023-05-12T10:02:04.723Z,20.70
2023-05-12T10:04:41.805Z,21.00
2023-05-12T10:07:12.022Z,21.00
2023-05-12T10:09:42.297Z,21.10
2023-05-12T10:12:10.208Z,21.10
2023-05-12T10:14:37.865Z,21.30
2023-05-12T10:17:07.223Z,21.40
2023-05-12T10:19:36.127Z,21.60
2023-05-12T10:22:06.687Z,21.70
2023-05-12T10:24:34.688Z,21.80
2023-05-12T10:27:03.936Z,22.10
2023-05-12T10:29:32.981Z,22.20
2023-05-12T10:32:03.748Z,22.20
2023-05-12T10:34:37.168Z,22.50
2023-05-12T10:37:10.897Z,22.50
2023-05-12T10:39:51.567Z,22.30
2023-05-12T10:42:25.716Z,22.30
2023-05-12T10:44:54.373Z,22.30
2023-05-12T10:47:37.767Z,22.40
2023-05-12T10:50:05.657Z,22.20
2023-05-12T10:52:32.586Z,22.00
2023-05-12T10:55:04.593Z,22.10
2023-05-12T10:57:33.634Z,22.40
2023-05-12T11:00:02.583Z,22.80
2023-05-12T11:02:34.181Z,23.20
2023-05-12T11:05:06.623Z,23.40
2023-05-12T11:07:35.359Z,23.40
2023-05-12T11:10:05.371Z,23.50
2023-05-12T11:12:36.402Z,23.70
2023-05-12T11:15:05.330Z,23.90
2023-05-12T11:17:32.825Z,23.90
2023-05-12T11:20:01.492Z,23.60
2023-05-12T11:22:28.845Z,23.90
2023-05-12T11:24:55.862Z,23.90
2023-05-12T11:27:23.856Z,24.10
2023-05-12T11:29:59.153Z,24.20
2023-05-12T11:32:26.665Z,24.40
2023-05-12T11:34:53.784Z,24.50
2023-05-12T11:37:21.383Z,24.70
2023-05-12T11:39:48.755Z,24.90
2023-05-12T11:42:17.737Z,25.00
2023-05-12T11:44:48.523Z,25.40
2023-05-12T11:47:16.738Z,25.30
2023-05-12T11:49:49.699Z,25.30
2023-05-12T11:52:17.882Z,25.50
2023-05-12T11:55:00.887Z,25.30
2023-05-12T11:57:29.658Z,24.80
2023-05-12T12:00:02.838Z,24.40
2023-05-12T12:02:29.867Z,23.80
2023-05-12T12:04:57.174Z,23.30
2023-05-12T12:07:35.430Z,22.60
2023-05-12T12:10:17.156Z,22.50
2023-05-12T12:12:45.331Z,22.20
2023-05-12T12:15:13.130Z,21.70
2023-05-12T12:17:40.522Z,21.10
2023-05-12T12:20:09.319Z,20.30
2023-05-12T12:22:36.373Z,19.60
2023-05-12T12:25:04.298Z,19.80
2023-05-12T12:27:32.802Z,19.40
2023-05-12T12:30:00.142Z,18.40
2023-05-12T12:32:27.191Z,18.10
2023-05-12T12:34:54.170Z,18.50
2023-05-12T12:37:21.151Z,18.10
2023-05-12T12:39:48.100Z,17.80
2023-05-12T12:42:15.746Z,17.80
2023-05-12T12:44:43.779Z,18.70
2023-05-12T12:47:10.729Z,19.40
2023-05-12T12:49:37.722Z,19.50
2023-05-12T12:52:04.954Z,18.50
2023-05-12T12:54:31.876Z,18.00
2023-05-12T12:56:59.163Z,17.70
2023-05-12T12:59:27.036Z,17.90
2023-05-12T13:01:54.172Z,18.10
2023-05-12T13:04:23.070Z,17.90
2023-05-12T13:06:50.093Z,17.70
2023-05-12T13:09:19.804Z,17.70
2023-05-12T13:11:47.770Z,17.80
2023-05-12T13:14:14.934Z,17.50
2023-05-12T13:16:42.764Z,17.50
2023-05-12T13:19:10.058Z,17.60
2023-05-12T13:21:37.914Z,17.50
2023-05-12T13:24:04.904Z,17.40
2023-05-12T13:26:32.175Z,17.50
2023-05-12T13:28:59.380Z,17.30
2023-05-12T13:31:26.884Z,17.10
2023-05-12T13:33:54.370Z,16.90
2023-05-12T13:36:21.294Z,16.90
2023-05-12T13:38:48.203Z,17.20
2023-05-12T13:41:15.122Z,17.30
2023-05-12T13:43:41.977Z,17.50
2023-05-12T13:46:09.592Z,17.80
2023-05-12T13:48:36.507Z,18.70
2023-05-12T13:51:04.497Z,20.00
2023-05-12T13:53:32.180Z,20.50
2023-05-12T13:55:59.082Z,20.50
2023-05-12T13:58:25.938Z,20.00
2023-05-12T14:00:52.819Z,19.90
2023-05-12T14:03:19.793Z,19.30
2023-05-12T14:05:46.653Z,18.80
2023-05-12T14:08:13.570Z,18.40
2023-05-12T14:10:41.209Z,17.70
2023-05-12T14:13:08.665Z,17.60
2023-05-12T14:15:47.808Z,17.80
2023-05-12T14:18:16.012Z,18.10
2023-05-12T14:20:42.908Z,18.30
2023-05-12T14:23:10.203Z,18.30
2023-05-12T14:25:37.107Z,21.70
2023-05-12T14:28:04.275Z,22.70
2023-05-12T14:30:31.218Z,25.00
2023-05-12T14:32:58.354Z,28.70
2023-05-12T14:35:27.583Z,32.00
2023-05-12T14:37:56.597Z,30.60
2023-05-12T14:40:24.026Z,29.10
2023-05-12T14:42:51.169Z,27.90
2023-05-12T14:45:18.375Z,26.30
2023-05-12T14:47:45.848Z,25.00
2023-05-12T14:50:13.657Z,24.30
2023-05-12T14:52:40.638Z,23.10
2023-05-12T14:55:11.790Z,22.30
2023-05-12T14:57:40.460Z,22.10
2023-05-12T15:00:13.115Z,21.60
2023-05-12T15:02:41.261Z,20.90
2023-05-12T15:05:11.211Z,20.40
2023-05-12T15:07:38.320Z,20.40
2023-05-12T15:10:06.569Z,20.20
2023-05-12T15:12:34.640Z,20.20
2023-05-12T15:15:04.876Z,20.40
2023-05-12T15:17:32.391Z,20.40
2023-05-12T15:19:59.369Z,20.50
2023-05-12T15:22:26.564Z,20.40
2023-05-12T15:24:53.551Z,20.40
2023-05-12T15:27:20.390Z,20.40
2023-05-12T15:29:47.268Z,20.30
2023-05-12T15:32:14.338Z,20.20
2023-05-12T15:34:41.600Z,20.20
2023-05-12T15:37:09.911Z,20.40
2023-05-12T15:39:36.897Z,20.40
2023-05-12T15:42:06.183Z,20.40
2023-05-12T15:44:34.430Z,20.50
2023-05-12T15:47:01.370Z,20.50
2023-05-12T15:49:28.257Z,20.80
2023-05-12T15:51:55.474Z,21.10
2023-05-12T15:54:22.405Z,21.10
2023-05-12T15:56:50.195Z,21.30
2023-05-12T15:59:17.099Z,21.10
2023-05-12T16:01:44.165Z,21.00
2023-05-12T16:04:11.143Z,21.10
2023-05-12T16:06:38.108Z,21.60
2023-05-12T16:09:05.418Z,22.20
2023-05-12T16:11:33.023Z,22.50
2023-05-12T16:14:02.273Z,22.70
2023-05-12T16:16:30.439Z,22.70
2023-05-12T16:18:57.913Z,23.00
2023-05-12T16:21:24.927Z,24.30
2023-05-12T16:23:52.245Z,24.20
2023-05-12T16:26:19.417Z,24.40
2023-05-12T16:28:47.605Z,26.30
2023-05-12T16:31:17.903Z,27.90
2023-05-12T16:33:45.082Z,28.50
2023-05-12T16:36:12.026Z,28.90
2023-05-12T16:38:39.264Z,27.10
2023-05-12T16:41:06.492Z,25.50
2023-05-12T16:43:33.618Z,23.70
2023-05-12T16:46:01.787Z,23.30
2023-05-12T16:48:34.141Z,24.30
2023-05-12T16:51:06.762Z,25.80
2023-05-12T16:53:34.347Z,27.00
2023-05-12T16:56:01.791Z,28.10
2023-05-12T16:58:32.387Z,27.30
2023-05-12T17:01:00.865Z,28.30
2023-05-12T17:03:31.711Z,27.70
2023-05-12T17:05:58.772Z,27.50
2023-05-12T17:08:26.077Z,27.60
2023-05-12T17:10:52.965Z,27.60
2023-05-12T17:13:19.910Z,27.80
2023-05-12T17:15:47.044Z,25.50
2023-05-12T17:18:14.316Z,23.40
2023-05-12T17:20:41.667Z,22.30
2023-05-12T17:23:09.243Z,22.90
2023-05-12T17:25:36.753Z,24.10
2023-05-12T17:28:06.108Z,24.00
2023-05-12T17:30:33.140Z,22.70
2023-05-12T17:33:00.609Z,22.60
2023-05-12T17:35:27.947Z,23.10
2023-05-12T17:37:55.707Z,21.70
2023-05-12T17:40:23.068Z,21.10
2023-05-12T17:42:50.298Z,21.40
2023-05-12T17:45:17.817Z,21.00
2023-05-12T17:47:45.626Z,20.00
2023-05-12T17:50:14.889Z,19.30
2023-05-12T17:52:43.429Z,18.80
2023-05-12T17:55:10.832Z,18.30
2023-05-12T17:57:38.179Z,18.00
2023-05-12T18:00:09.973Z,17.70
2023-05-12T18:02:41.221Z,17.40
2023-05-12T18:05:09.172Z,17.10
2023-05-12T18:07:36.237Z,16.80
2023-05-12T18:10:03.296Z,16.60
2023-05-12T18:12:30.944Z,16.40
2023-05-12T18:14:58.202Z,16.30
2023-05-12T18:17:26.061Z,16.20
2023-05-12T18:19:54.207Z,16.00
2023-05-12T18:22:21.290Z,15.90
2023-05-12T18:24:48.653Z,15.70
2023-05-12T18:27:15.970Z,15.60
2023-05-12T18:29:43.060Z,15.50
2023-05-12T18:32:10.044Z,15.30
2023-05-12T18:34:37.000Z,15.20
2023-05-12T18:37:05.091Z,15.20
2023-05-12T18:39:31.933Z,15.10
2023-05-12T18:41:59.172Z,15.00
2023-05-12T18:44:26.098Z,15.00
2023-05-12T18:46:53.502Z,14.90
2023-05-12T18:49:20.896Z,14.80
2023-05-12T18:51:47.840Z,14.90
2023-05-12T18:54:16.486Z,14.80
2023-05-12T18:56:44.006Z,14.80
2023-05-12T18:59:10.928Z,14.70
2023-05-12T19:01:37.849Z,14.60
2023-05-12T19:04:05.364Z,14.60
2023-05-12T19:06:32.743Z,14.40
2023-05-12T19:08:59.657Z,14.40
2023-05-12T19:11:27.062Z,14.30
2023-05-12T19:13:53.971Z,14.40
2023-05-12T19:16:23.632Z,14.30
2023-05-12T19:18:51.155Z,14.20
2023-05-12T19:21:18.370Z,14.10
2023-05-12T19:23:45.273Z,14.20
2023-05-12T19:26:12.116Z,14.10
2023-05-12T19:28:39.452Z,14.10
2023-05-12T19:31:06.404Z,14.10
2023-05-12T19:33:34.873Z,14.10
2023-05-12T19:36:02.283Z,14.30
2023-05-12T19:38:29.553Z,14.20
2023-05-12T19:40:56.831Z,14.00
2023-05-12T19:43:23.696Z,14.00
2023-05-12T19:45:50.701Z,14.10
2023-05-12T19:48:17.756Z,14.00
2023-05-12T19:50:44.786Z,14.00
2023-05-12T19:53:11.656Z,14.00
2023-05-12T19:55:39.133Z,14.00
2023-05-12T19:58:06.532Z,13.90
2023-05-12T20:00:33.430Z,13.90
2023-05-12T20:03:00.586Z,13.90
2023-05-12T20:05:28.033Z,13.90
2023-05-12T20:07:56.438Z,13.90
2023-05-12T20:10:23.248Z,13.90
2023-05-12T20:12:50.945Z,13.90
2023-05-12T20:15:17.984Z,14.00
2023-05-12T20:17:45.454Z,14.00
2023-05-12T20:20:13.578Z,14.10
2023-05-12T20:22:41.139Z,14.10
2023-05-12T20:25:08.451Z,14.10
2023-05-12T20:27:35.337Z,14.10
2023-05-12T20:30:02.604Z,14.00
2023-05-12T20:32:30.480Z,14.00
2023-05-12T20:34:57.864Z,13.90
2023-05-12T20:37:25.285Z,14.00
2023-05-12T20:39:53.915Z,14.00
2023-05-12T20:42:21.080Z,13.90
2023-05-12T20:44:47.972Z,14.00
2023-05-12T20:47:15.111Z,13.80
2023-05-12T20:49:42.231Z,13.70
2023-05-12T20:52:09.582Z,13.80
2023-05-12T20:54:36.510Z,13.70
2023-05-12T20:57:03.597Z,13.60
2023-05-12T20:59:30.446Z,13.70
2023-05-12T21:01:57.407Z,13.60
2023-05-12T21:04:24.389Z,13.50
2023-05-12T21:06:53.305Z,13.40
2023-05-12T21:09:20.763Z,13.40
2023-05-12T21:11:48.171Z,13.40
2023-05-12T21:14:15.436Z,13.40
2023-05-12T21:16:42.356Z,13.40
2023-05-12T21:19:09.377Z,13.40
2023-05-12T21:21:36.371Z,13.40
2023-05-12T21:24:03.420Z,13.30
2023-05-12T21:26:30.258Z,13.50
2023-05-12T21:29:02.782Z,13.60
2023-05-12T21:31:30.294Z,13.60
2023-05-12T21:33:57.611Z,13.50
2023-05-12T21:36:24.500Z,13.30
2023-05-12T21:38:51.427Z,13.30
2023-05-12T21:41:18.318Z,13.50
2023-05-12T21:43:45.605Z,13.50
2023-05-12T21:46:14.206Z,13.50
2023-05-12T21:48:43.668Z,13.60
2023-05-12T21:51:10.729Z,13.40
2023-05-12T21:53:37.599Z,13.40
2023-05-12T21:56:05.427Z,13.30
2023-05-12T21:58:32.452Z,13.30
2023-05-12T22:00:59.979Z,13.40
2023-05-12T22:03:27.337Z,13.30
2023-05-12T22:05:54.185Z,13.30
2023-05-12T22:08:21.341Z,13.30
2023-05-12T22:10:48.213Z,13.20
2023-05-12T22:13:15.244Z,13.20
2023-05-12T22:15:42.290Z,13.30
2023-05-12T22:18:09.711Z,13.40
2023-05-12T22:20:36.785Z,13.30
2023-05-12T22:23:04.140Z,13.40
2023-05-12T22:25:31.050Z,13.40
2023-05-12T22:27:58.303Z,13.40
2023-05-12T22:30:25.177Z,13.30
2023-05-12T22:32:52.109Z,13.30
2023-05-12T22:35:19.065Z,13.30
2023-05-12T22:37:45.944Z,13.30
2023-05-12T22:40:12.901Z,13.30
2023-05-12T22:42:39.704Z,13.20
2023-05-12T22:45:07.453Z,13.20
2023-05-12T22:47:34.592Z,13.10
2023-05-12T22:50:01.589Z,12.90
2023-05-12T22:52:28.946Z,12.90
2023-05-12T22:54:55.891Z,12.80
2023-05-12T22:57:22.985Z,13.80
2023-05-12T22:59:50.785Z,12.80
2023-05-12T23:02:18.214Z,12.70
2023-05-12T23:04:45.106Z,12.80
2023-05-12T23:07:12.089Z,12.60
2023-05-12T23:09:39.598Z,12.70
2023-05-12T23:12:07.349Z,12.70
2023-05-12T23:14:34.276Z,12.50
2023-05-12T23:17:01.627Z,12.50
2023-05-12T23:19:28.926Z,12.40
2023-05-12T23:21:55.895Z,12.30
2023-05-12T23:24:22.868Z,12.10
2023-05-12T23:26:50.657Z,12.10
2023-05-12T23:29:17.563Z,12.10
2023-05-12T23:31:47.569Z,12.00
2023-05-12T23:34:14.538Z,12.00
2023-05-12T23:36:41.403Z,12.00
2023-05-12T23:39:09.762Z,11.90
2023-05-12T23:41:36.639Z,11.90
2023-05-12T23:44:03.629Z,12.10
2023-05-12T23:46:30.575Z,11.90
2023-05-12T23:48:58.020Z,12.00
2023-05-12T23:51:24.964Z,11.90
2023-05-12T23:53:52.297Z,11.90
2023-05-12T23:56:19.166Z,11.90
2023-05-12T23:58:47.488Z,11.90
